| Back to River Map | <<< Previous Forecast Point | | | Next Forecast Point >>> | Printer Version | Graph Version |  |
|
SCOTT RIVER - FORT JONES (FTJC1)
| Latitude: 41.64º N | Longitude: 123.01º W | Elevation: 2624 Feet | | Forecast Type: Official Location |
| Location: Siskiyou County in California | Bulletin Group: North Coast | River Group: Klamath |
| Issuance Time: | May 03 2026 at 8:48 AM PDT | Next Issuance: | May 04 2026 at 9:00 AM PDT
| |
| Action/Monitor: 12.0 Feet | Minor Flood: 15.0 Feet | Moderate Flood: 20.0 Feet | Major Flood: 25.0 Feet |
# Tabular Observed and Forecast Hydrograph Information
#
# Location: Scott River - Fort Jones (FTJC1)
#
# File Generation Time: 05/03/2026 at 08:48 AM PDT
# Data Interval: 1 Hour
#
# Most Recent Date & Time of Maximum Observed: 04/28/2026 at 02:00 PM PDT
# Maximum Observed Stage: 5.93 Feet
# Maximum Observed Flow: 382 cfs
#
# Earliest Date & Time of Maximum Forecast: 05/04/2026 at 05:00 AM PDT
# Maximum Forecast Stage: 5.73 Feet
# Maximum Forecast Flow: 322 cfs
#
# OBSERVED
#
# Date & Time (Local) Stage (Feet) Flow (cfs) Trend Observed Status
# ---------------------------------------------------------------------------------
04/28/2026 08 AM PDT 5.93 382 Normal
04/28/2026 09 AM PDT 5.93 382 0 Normal
04/28/2026 10 AM PDT 5.93 382 0 Normal
04/28/2026 11 AM PDT 5.93 382 0 Normal
04/28/2026 12 PM PDT 5.93 382 0 Normal
04/28/2026 01 PM PDT 5.93 382 0 Normal
04/28/2026 02 PM PDT 5.93 382 0 Normal
04/28/2026 03 PM PDT 5.92 379 - Normal
04/28/2026 04 PM PDT 5.92 379 0 Normal
04/28/2026 05 PM PDT 5.91 376 - Normal
04/28/2026 06 PM PDT 5.91 376 0 Normal
04/28/2026 07 PM PDT 5.90 373 - Normal
04/28/2026 08 PM PDT 5.90 373 0 Normal
04/28/2026 09 PM PDT 5.89 369 - Normal
04/28/2026 10 PM PDT 5.88 366 - Normal
04/28/2026 11 PM PDT 5.88 366 0 Normal
04/29/2026 12 AM PDT 5.87 363 - Normal
04/29/2026 01 AM PDT 5.87 363 0 Normal
04/29/2026 02 AM PDT 5.86 360 - Normal
04/29/2026 03 AM PDT 5.85 357 - Normal
04/29/2026 04 AM PDT 5.84 354 - Normal
04/29/2026 05 AM PDT 5.84 354 0 Normal
04/29/2026 06 AM PDT 5.83 351 - Normal
04/29/2026 07 AM PDT 5.83 351 0 Normal
04/29/2026 08 AM PDT 5.82 348 - Normal
04/29/2026 09 AM PDT 5.82 348 0 Normal
04/29/2026 10 AM PDT 5.81 345 - Normal
04/29/2026 11 AM PDT 5.81 345 0 Normal
04/29/2026 12 PM PDT 5.80 342 - Normal
04/29/2026 01 PM PDT 5.80 342 0 Normal
04/29/2026 02 PM PDT 5.79 339 - Normal
04/29/2026 03 PM PDT 5.79 339 0 Normal
04/29/2026 04 PM PDT 5.79 339 0 Normal
04/29/2026 05 PM PDT 5.79 339 0 Normal
04/29/2026 06 PM PDT 5.79 339 0 Normal
04/29/2026 07 PM PDT 5.78 336 - Normal
04/29/2026 08 PM PDT 5.78 336 0 Normal
04/29/2026 09 PM PDT 5.78 336 0 Normal
04/29/2026 10 PM PDT 5.78 336 0 Normal
04/29/2026 11 PM PDT 5.77 333 - Normal
04/30/2026 12 AM PDT 5.77 333 0 Normal
04/30/2026 01 AM PDT 5.77 333 0 Normal
04/30/2026 02 AM PDT 5.76 330 - Normal
04/30/2026 03 AM PDT 5.76 330 0 Normal
04/30/2026 04 AM PDT 5.76 330 0 Normal
04/30/2026 05 AM PDT 5.75 327 - Normal
04/30/2026 06 AM PDT 5.75 327 0 Normal
04/30/2026 07 AM PDT 5.74 324 - Normal
04/30/2026 08 AM PDT 5.74 324 0 Normal
04/30/2026 09 AM PDT 5.73 322 - Normal
04/30/2026 10 AM PDT 5.73 322 0 Normal
04/30/2026 11 AM PDT 5.72 319 - Normal
04/30/2026 12 PM PDT 5.72 319 0 Normal
04/30/2026 01 PM PDT 5.72 319 0 Normal
04/30/2026 02 PM PDT 5.72 319 0 Normal
04/30/2026 03 PM PDT 5.71 316 - Normal
04/30/2026 04 PM PDT 5.71 316 0 Normal
04/30/2026 05 PM PDT 5.70 313 - Normal
04/30/2026 06 PM PDT 5.70 313 0 Normal
04/30/2026 07 PM PDT 5.70 313 0 Normal
04/30/2026 08 PM PDT 5.69 310 - Normal
04/30/2026 09 PM PDT 5.69 310 0 Normal
04/30/2026 10 PM PDT 5.69 310 0 Normal
04/30/2026 11 PM PDT 5.69 310 0 Normal
05/01/2026 12 AM PDT 5.68 307 - Normal
05/01/2026 01 AM PDT 5.68 307 0 Normal
05/01/2026 02 AM PDT 5.68 307 0 Normal
05/01/2026 03 AM PDT 5.68 307 0 Normal
05/01/2026 04 AM PDT 5.68 307 0 Normal
05/01/2026 05 AM PDT 5.67 305 - Normal
05/01/2026 06 AM PDT 5.67 305 0 Normal
05/01/2026 07 AM PDT 5.67 305 0 Normal
05/01/2026 08 AM PDT 5.66 302 - Normal
05/01/2026 09 AM PDT 5.66 302 0 Normal
05/01/2026 10 AM PDT 5.66 302 0 Normal
05/01/2026 11 AM PDT 5.67 305 + Normal
05/01/2026 12 PM PDT 5.66 302 - Normal
05/01/2026 01 PM PDT 5.67 305 + Normal
05/01/2026 02 PM PDT 5.67 305 0 Normal
05/01/2026 03 PM PDT 5.67 305 0 Normal
05/01/2026 04 PM PDT 5.67 305 0 Normal
05/01/2026 05 PM PDT 5.67 305 0 Normal
05/01/2026 06 PM PDT 5.67 305 0 Normal
05/01/2026 07 PM PDT 5.66 302 - Normal
05/01/2026 08 PM PDT 5.66 302 0 Normal
05/01/2026 09 PM PDT 5.66 302 0 Normal
05/01/2026 10 PM PDT 5.66 302 0 Normal
05/01/2026 11 PM PDT 5.65 299 - Normal
05/02/2026 12 AM PDT 5.65 299 0 Normal
05/02/2026 01 AM PDT 5.65 299 0 Normal
05/02/2026 02 AM PDT 5.65 299 0 Normal
05/02/2026 03 AM PDT 5.64 296 - Normal
05/02/2026 04 AM PDT 5.64 296 0 Normal
05/02/2026 05 AM PDT 5.64 296 0 Normal
05/02/2026 06 AM PDT 5.64 296 0 Normal
05/02/2026 07 AM PDT 5.63 294 - Normal
05/02/2026 08 AM PDT 5.63 294 0 Normal
05/02/2026 09 AM PDT 5.63 294 0 Normal
05/02/2026 10 AM PDT 5.63 294 0 Normal
05/02/2026 11 AM PDT 5.63 294 0 Normal
05/02/2026 12 PM PDT 5.64 296 + Normal
05/02/2026 01 PM PDT 5.64 296 0 Normal
05/02/2026 02 PM PDT 5.64 296 0 Normal
05/02/2026 03 PM PDT 5.64 296 0 Normal
05/02/2026 04 PM PDT 5.65 299 + Normal
05/02/2026 05 PM PDT 5.64 296 - Normal
05/02/2026 06 PM PDT 5.65 299 + Normal
05/02/2026 07 PM PDT 5.65 299 0 Normal
05/02/2026 08 PM PDT 5.65 299 0 Normal
05/02/2026 09 PM PDT 5.65 299 0 Normal
05/02/2026 10 PM PDT 5.65 299 0 Normal
05/02/2026 11 PM PDT 5.65 299 0 Normal
05/03/2026 12 AM PDT 5.64 296 - Normal
05/03/2026 01 AM PDT 5.64 296 0 Normal
05/03/2026 02 AM PDT 5.64 296 0 Normal
05/03/2026 03 AM PDT 5.64 296 0 Normal
05/03/2026 04 AM PDT 5.63 294 - Normal
05/03/2026 05 AM PDT 5.63 294 0 Normal
05/03/2026 06 AM PDT 5.63 294 0 Normal
05/03/2026 07 AM PDT 5.63 294 0 Normal
05/03/2026 08 AM PDT 5.63 294 0 Normal
#
# FORECAST
#
# Date & Time (Local) Stage (Feet) Flow (cfs) Trend Forecast Status
# ---------------------------------------------------------------------------------
05/03/2026 09 AM PDT 5.63 294 Normal
05/03/2026 10 AM PDT 5.62 291 - Normal
05/03/2026 11 AM PDT 5.62 291 0 Normal
05/03/2026 12 PM PDT 5.62 291 0 Normal
05/03/2026 01 PM PDT 5.62 291 0 Normal
05/03/2026 02 PM PDT 5.62 291 0 Normal
05/03/2026 03 PM PDT 5.62 291 0 Normal
05/03/2026 04 PM PDT 5.62 291 0 Normal
05/03/2026 05 PM PDT 5.62 291 0 Normal
05/03/2026 06 PM PDT 5.63 294 + Normal
05/03/2026 07 PM PDT 5.64 296 + Normal
05/03/2026 08 PM PDT 5.64 296 0 Normal
05/03/2026 09 PM PDT 5.65 299 + Normal
05/03/2026 10 PM PDT 5.65 299 0 Normal
05/03/2026 11 PM PDT 5.66 302 + Normal
05/04/2026 12 AM PDT 5.67 305 + Normal
05/04/2026 01 AM PDT 5.68 307 + Normal
05/04/2026 02 AM PDT 5.69 310 + Normal
05/04/2026 03 AM PDT 5.71 316 + Normal
05/04/2026 04 AM PDT 5.72 319 + Normal
05/04/2026 05 AM PDT 5.73 322 + Normal
05/04/2026 06 AM PDT 5.73 322 0 Normal
05/04/2026 07 AM PDT 5.73 322 0 Normal
05/04/2026 08 AM PDT 5.72 319 - Normal
05/04/2026 09 AM PDT 5.72 319 0 Normal
05/04/2026 10 AM PDT 5.72 319 0 Normal
05/04/2026 11 AM PDT 5.72 319 0 Normal
05/04/2026 12 PM PDT 5.71 316 - Normal
05/04/2026 01 PM PDT 5.70 313 - Normal
05/04/2026 02 PM PDT 5.69 310 - Normal
05/04/2026 03 PM PDT 5.68 307 - Normal
05/04/2026 04 PM PDT 5.67 305 - Normal
05/04/2026 05 PM PDT 5.66 302 - Normal
05/04/2026 06 PM PDT 5.66 302 0 Normal
05/04/2026 07 PM PDT 5.65 299 - Normal
05/04/2026 08 PM PDT 5.65 299 0 Normal
05/04/2026 09 PM PDT 5.65 299 0 Normal
05/04/2026 10 PM PDT 5.64 296 - Normal
05/04/2026 11 PM PDT 5.64 296 0 Normal
05/05/2026 12 AM PDT 5.64 296 0 Normal
05/05/2026 01 AM PDT 5.64 296 0 Normal
05/05/2026 02 AM PDT 5.65 299 + Normal
05/05/2026 03 AM PDT 5.65 299 0 Normal
05/05/2026 04 AM PDT 5.65 299 0 Normal
05/05/2026 05 AM PDT 5.65 299 0 Normal
05/05/2026 06 AM PDT 5.65 299 0 Normal
05/05/2026 07 AM PDT 5.64 296 - Normal
05/05/2026 08 AM PDT 5.64 296 0 Normal
05/05/2026 09 AM PDT 5.63 294 - Normal
05/05/2026 10 AM PDT 5.63 294 0 Normal
05/05/2026 11 AM PDT 5.63 294 0 Normal
05/05/2026 12 PM PDT 5.62 291 - Normal
05/05/2026 01 PM PDT 5.62 291 0 Normal
05/05/2026 02 PM PDT 5.61 288 - Normal
05/05/2026 03 PM PDT 5.60 285 - Normal
05/05/2026 04 PM PDT 5.60 285 0 Normal
05/05/2026 05 PM PDT 5.59 283 - Normal
05/05/2026 06 PM PDT 5.59 283 0 Normal
05/05/2026 07 PM PDT 5.59 283 0 Normal
05/05/2026 08 PM PDT 5.59 283 0 Normal
05/05/2026 09 PM PDT 5.59 283 0 Normal
05/05/2026 10 PM PDT 5.59 283 0 Normal
05/05/2026 11 PM PDT 5.59 283 0 Normal
05/06/2026 12 AM PDT 5.58 280 - Normal
05/06/2026 01 AM PDT 5.58 280 0 Normal
05/06/2026 02 AM PDT 5.58 280 0 Normal
05/06/2026 03 AM PDT 5.58 280 0 Normal
05/06/2026 04 AM PDT 5.58 280 0 Normal
05/06/2026 05 AM PDT 5.58 280 0 Normal
05/06/2026 06 AM PDT 5.57 278 - Normal
05/06/2026 07 AM PDT 5.57 278 0 Normal
05/06/2026 08 AM PDT 5.57 278 0 Normal
05/06/2026 09 AM PDT 5.57 278 0 Normal
05/06/2026 10 AM PDT 5.57 278 0 Normal
05/06/2026 11 AM PDT 5.57 278 0 Normal
05/06/2026 12 PM PDT 5.57 278 0 Normal
05/06/2026 01 PM PDT 5.56 275 - Normal
05/06/2026 02 PM PDT 5.56 275 0 Normal
05/06/2026 03 PM PDT 5.56 275 0 Normal
05/06/2026 04 PM PDT 5.56 275 0 Normal
05/06/2026 05 PM PDT 5.56 275 0 Normal
05/06/2026 06 PM PDT 5.56 275 0 Normal
05/06/2026 07 PM PDT 5.56 275 0 Normal
05/06/2026 08 PM PDT 5.56 275 0 Normal
05/06/2026 09 PM PDT 5.56 275 0 Normal
05/06/2026 10 PM PDT 5.56 275 0 Normal
05/06/2026 11 PM PDT 5.56 275 0 Normal
05/07/2026 12 AM PDT 5.56 275 0 Normal
05/07/2026 01 AM PDT 5.56 275 0 Normal
05/07/2026 02 AM PDT 5.56 275 0 Normal
05/07/2026 03 AM PDT 5.55 272 - Normal
05/07/2026 04 AM PDT 5.55 272 0 Normal
05/07/2026 05 AM PDT 5.55 272 0 Normal
05/07/2026 06 AM PDT 5.55 272 0 Normal
05/07/2026 07 AM PDT 5.55 272 0 Normal
05/07/2026 08 AM PDT 5.55 272 0 Normal
05/07/2026 09 AM PDT 5.55 272 0 Normal
05/07/2026 10 AM PDT 5.55 272 0 Normal
05/07/2026 11 AM PDT 5.55 272 0 Normal
05/07/2026 12 PM PDT 5.54 270 - Normal
05/07/2026 01 PM PDT 5.54 270 0 Normal
05/07/2026 02 PM PDT 5.54 270 0 Normal
05/07/2026 03 PM PDT 5.54 270 0 Normal
05/07/2026 04 PM PDT 5.54 270 0 Normal
05/07/2026 05 PM PDT 5.54 270 0 Normal
05/07/2026 06 PM PDT 5.54 270 0 Normal
05/07/2026 07 PM PDT 5.54 270 0 Normal
05/07/2026 08 PM PDT 5.54 270 0 Normal
05/07/2026 09 PM PDT 5.54 270 0 Normal
05/07/2026 10 PM PDT 5.54 270 0 Normal
05/07/2026 11 PM PDT 5.54 270 0 Normal
05/08/2026 12 AM PDT 5.54 270 0 Normal
05/08/2026 01 AM PDT 5.54 270 0 Normal
05/08/2026 02 AM PDT 5.54 270 0 Normal
05/08/2026 03 AM PDT 5.54 270 0 Normal
05/08/2026 04 AM PDT 5.54 270 0 Normal
05/08/2026 05 AM PDT 5.54 270 0 Normal
#
# NOTE 1: Stages are rounded to the nearest hundredth (.01) of a foot.
# NOTE 2: Flows are rounded to the nearest (1) cfs.
# NOTE 3: Trends are determined using hourly change in unrounded stage and flow.
# NOTE 4: Maximum Values are determined using unrounded stage and flow.
|